Wetterdaten: Woche 21.05.12 - 27.05.12 (KW21)
Datum Zeit Temp. Innen Temp. Aussen UV X Diff Temp. Feuchte Inne Feuchte Auss Sonnenschein Luftdruck Regen ab 0,1 Wind Sonnenschein T Regendauer Windben
21.05.2012 00:00 20,7 C 15,5 C 0,0 UV-I 0,0 C 59 % 85 % 0 % 1003,9 hPa 0,0 l/m 0,0 km/h (0 Bft) 0,00 h 0,03 h 0,0 km/h (0 Bft)
21.05.2012 01:00 20,5 C 14,6 C 0,0 UV-I 0,0 C 60 % 89 % 0 % 1003,3 hPa 0,0 l/m 0,0 km/h (0 Bft) 0,00 h 0,00 h 0,0 km/h (0 Bft)
21.05.2012 02:00 20,3 C 13,9 C 0,0 UV-I 0,0 C 61 % 90 % 0 % 1002,9 hPa 0,0 l/m 0,0 km/h (0 Bft) 0,00 h 0,00 h 0,0 km/h (0 Bft)
21.05.2012 03:00 20,1 C 13,4 C 0,0 UV-I 0,0 C 61 % 92 % 0 % 1002,8 hPa 0,0 l/m 0,0 km/h (0 Bft) 0,00 h 0,00 h 0,0 km/h (0 Bft)
21.05.2012 04:00 20,0 C 12,9 C 0,0 UV-I 0,0 C 61 % 92 % 0 % 1001,8 hPa 0,0 l/m 0,0 km/h (0 Bft) 0,00 h 0,00 h 0,0 km/h (0 Bft)
21.05.2012 05:00 19,8 C 12,6 C 0,0 UV-I 0,0 C 62 % 93 % 0 % 1001,3 hPa 0,0 l/m 0,0 km/h (0 Bft) 0,00 h 0,03 h 0,0 km/h (0 Bft)
21.05.2012 06:00 19,8 C 13,2 C 0,0 UV-I 0,0 C 62 % 95 % 0 % 1000,8 hPa 0,0 l/m 2,0 km/h (1 Bft) 0,00 h 0,00 h 5,5 km/h (1 Bft)
21.05.2012 07:00 19,9 C 14,8 C 0,1 UV-I 0,4 C 62 % 94 % 13 % 1000,5 hPa 0,0 l/m 6,9 km/h (2 Bft) 0,00 h 0,00 h 11,3 km/h (2 Bft)
21.05.2012 08:00 20,0 C 16,5 C 0,6 UV-I 2,1 C 63 % 91 % 61 % 1000,4 hPa 0,0 l/m 4,8 km/h (1 Bft) 0,13 h 0,00 h 10,5 km/h (2 Bft)
21.05.2012 09:00 20,3 C 18,1 C 1,1 UV-I 3,3 C 63 % 85 % 91 % 1000,1 hPa 0,0 l/m 8,5 km/h (2 Bft) 0,67 h 0,00 h 15,8 km/h (3 Bft)
21.05.2012 10:00 20,6 C 19,4 C 1,6 UV-I 3,6 C 63 % 80 % 97 % 1000,0 hPa 0,0 l/m 8,3 km/h (2 Bft) 1,00 h 0,00 h 13,5 km/h (3 Bft)
21.05.2012 11:00 20,9 C 20,4 C 1,7 UV-I 3,7 C 62 % 78 % 92 % 999,7 hPa 0,0 l/m 7,2 km/h (2 Bft) 0,93 h 0,00 h 13,2 km/h (3 Bft)
21.05.2012 12:00 21,2 C 22,4 C 2,8 UV-I 6,2 C 63 % 73 % 100 % 999,1 hPa 0,0 l/m 10,1 km/h (2 Bft) 1,00 h 0,00 h 18,0 km/h (3 Bft)
21.05.2012 13:00 21,6 C 23,8 C 2,3 UV-I 4,6 C 63 % 68 % 98 % 998,5 hPa 0,0 l/m 11,5 km/h (2 Bft) 1,00 h 0,00 h 17,3 km/h (3 Bft)
21.05.2012 14:00 21,9 C 23,9 C 1,4 UV-I 2,3 C 62 % 67 % 66 % 998,2 hPa 0,0 l/m 13,2 km/h (3 Bft) 0,03 h 0,00 h 20,5 km/h (4 Bft)
21.05.2012 15:00 22,1 C 24,6 C 0,9 UV-I 1,4 C 62 % 59 % 41 % 998,3 hPa 0,0 l/m 12,8 km/h (3 Bft) 0,00 h 0,00 h 19,0 km/h (3 Bft)
21.05.2012 16:00 22,1 C 24,6 C 0,5 UV-I 0,9 C 62 % 57 % 26 % 999,0 hPa 0,0 l/m 4,3 km/h (1 Bft) 0,00 h 0,10 h 7,5 km/h (2 Bft)
21.05.2012 17:00 22,0 C 24,1 C 0,3 UV-I 0,5 C 63 % 60 % 16 % 999,5 hPa 0,0 l/m 3,8 km/h (1 Bft) 0,00 h 0,00 h 6,6 km/h (2 Bft)
21.05.2012 18:00 22,0 C 23,7 C 0,3 UV-I 0,5 C 64 % 62 % 15 % 999,3 hPa 0,0 l/m 7,3 km/h (2 Bft) 0,00 h 0,00 h 11,3 km/h (2 Bft)
21.05.2012 19:00 22,0 C 23,8 C 0,3 UV-I 0,1 C 64 % 63 % 3 % 999,1 hPa 0,0 l/m 6,1 km/h (2 Bft) 0,00 h 0,00 h 9,3 km/h (2 Bft)
21.05.2012 20:00 22,0 C 23,2 C 0,0 UV-I 0,0 C 64 % 66 % 0 % 999,2 hPa 0,0 l/m 1,3 km/h (1 Bft) 0,00 h 0,00 h 3,3 km/h (1 Bft)
21.05.2012 21:00 21,8 C 21,8 C 0,0 UV-I 0,0 C 63 % 71 % 0 % 999,6 hPa 0,0 l/m 0,0 km/h (0 Bft) 0,00 h 0,00 h 0,0 km/h (0 Bft)
21.05.2012 22:00 21,6 C 19,8 C 0,0 UV-I 0,0 C 64 % 77 % 0 % 1000,1 hPa 0,0 l/m 0,0 km/h (0 Bft) 0,00 h 0,00 h 0,0 km/h (0 Bft)
21.05.2012 23:00 21,5 C 18,8 C 0,0 UV-I 0,0 C 64 % 82 % 0 % 1000,1 hPa 0,0 l/m 0,0 km/h (0 Bft) 0,00 h 0,00 h 0,0 km/h (0 Bft)
22.05.2012 00:00 21,4 C 18,3 C 0,0 UV-I 0,0 C 65 % 85 % 0 % 1000,1 hPa 0,0 l/m 0,1 km/h (0 Bft) 0,00 h 0,00 h 0,5 km/h (0 Bft)
22.05.2012 01:00 21,2 C 18,5 C 0,0 UV-I 0,0 C 65 % 85 % 0 % 1000,3 hPa 0,0 l/m 0,1 km/h (0 Bft) 0,00 h 0,00 h 0,9 km/h (0 Bft)
22.05.2012 02:00 21,2 C 18,0 C 0,0 UV-I 0,0 C 65 % 86 % 0 % 1000,6 hPa 0,0 l/m 0,0 km/h (0 Bft) 0,00 h 0,00 h 0,0 km/h (0 Bft)
22.05.2012 03:00 21,2 C 17,7 C 0,0 UV-I 0,0 C 65 % 89 % 0 % 1000,8 hPa 0,0 l/m 0,1 km/h (0 Bft) 0,00 h 0,00 h 0,2 km/h (0 Bft)
22.05.2012 04:00 21,2 C 17,5 C 0,0 UV-I 0,0 C 66 % 89 % 0 % 1001,5 hPa 0,0 l/m 0,4 km/h (0 Bft) 0,00 h 0,00 h 1,4 km/h (1 Bft)
22.05.2012 05:00 21,2 C 16,7 C 0,0 UV-I 0,0 C 66 % 91 % 0 % 1001,8 hPa 0,0 l/m 0,8 km/h (0 Bft) 0,00 h 0,00 h 3,7 km/h (1 Bft)
22.05.2012 06:00 21,0 C 15,6 C 0,0 UV-I 0,0 C 66 % 93 % 0 % 1002,4 hPa 0,0 l/m 1,7 km/h (1 Bft) 0,00 h 0,00 h 4,7 km/h (1 Bft)
22.05.2012 07:00 21,0 C 15,7 C 0,1 UV-I 0,3 C 66 % 95 % 9 % 1002,8 hPa 0,0 l/m 0,9 km/h (0 Bft) 0,00 h 0,00 h 3,8 km/h (1 Bft)
22.05.2012 08:00 21,1 C 17,2 C 0,7 UV-I 4,4 C 66 % 94 % 83 % 1003,3 hPa 0,0 l/m 1,0 km/h (0 Bft) 0,70 h 0,00 h 3,7 km/h (1 Bft)
22.05.2012 09:00 21,2 C 19,3 C 2,1 UV-I 7,5 C 67 % 90 % 100 % 1004,0 hPa 0,0 l/m 2,0 km/h (1 Bft) 0,95 h 0,00 h 5,4 km/h (1 Bft)
22.05.2012 10:00 21,5 C 20,8 C 3,1 UV-I 7,9 C 67 % 85 % 100 % 1004,8 hPa 0,0 l/m 2,3 km/h (1 Bft) 1,00 h 0,00 h 4,6 km/h (1 Bft)
22.05.2012 11:00 21,8 C 21,8 C 3,3 UV-I 8,0 C 67 % 80 % 100 % 1005,5 hPa 0,0 l/m 2,9 km/h (1 Bft) 0,77 h 0,00 h 6,4 km/h (2 Bft)
22.05.2012 12:00 22,1 C 23,0 C 2,9 UV-I 7,7 C 66 % 77 % 100 % 1006,1 hPa 0,0 l/m 2,6 km/h (1 Bft) 1,00 h 0,00 h 5,9 km/h (2 Bft)
22.05.2012 13:00 22,6 C 24,5 C 2,8 UV-I 7,1 C 66 % 72 % 100 % 1006,4 hPa 0,0 l/m 2,7 km/h (1 Bft) 1,00 h 0,00 h 5,7 km/h (1 Bft)
22.05.2012 14:00 23,7 C 26,2 C 2,8 UV-I 6,7 C 63 % 66 % 100 % 1006,2 hPa 0,0 l/m 2,8 km/h (1 Bft) 0,98 h 0,00 h 3,7 km/h (1 Bft)
22.05.2012 15:00 25,2 C 27,6 C 3,0 UV-I 6,5 C 58 % 61 % 100 % 1006,6 hPa 0,0 l/m 2,7 km/h (1 Bft) 1,00 h 0,00 h 4,2 km/h (1 Bft)
22.05.2012 16:00 26,0 C 28,5 C 3,2 UV-I 5,8 C 56 % 56 % 100 % 1006,9 hPa 0,0 l/m 3,0 km/h (1 Bft) 1,00 h 0,00 h 4,9 km/h (1 Bft)
22.05.2012 17:00 25,9 C 28,5 C 2,5 UV-I 5,0 C 56 % 55 % 100 % 1007,0 hPa 0,0 l/m 3,6 km/h (1 Bft) 1,00 h 0,00 h 6,0 km/h (2 Bft)
22.05.2012 18:00 25,1 C 27,7 C 0,9 UV-I 2,2 C 57 % 53 % 63 % 1009,1 hPa 0,0 l/m 2,9 km/h (1 Bft) 0,33 h 0,00 h 4,8 km/h (1 Bft)
22.05.2012 19:00 24,4 C 27,5 C 0,4 UV-I 0,4 C 58 % 53 % 12 % 1010,0 hPa 0,0 l/m 2,0 km/h (1 Bft) 0,00 h 0,00 h 2,4 km/h (1 Bft)
22.05.2012 20:00 24,0 C 25,9 C 0,0 UV-I 0,0 C 59 % 60 % 0 % 1010,9 hPa 0,0 l/m 0,6 km/h (0 Bft) 0,00 h 0,00 h 1,6 km/h (1 Bft)
22.05.2012 21:00 23,6 C 23,6 C 0,0 UV-I 0,0 C 60 % 69 % 0 % 1012,0 hPa 0,0 l/m 0,8 km/h (0 Bft) 0,00 h 0,00 h 1,5 km/h (1 Bft)
22.05.2012 22:00 23,3 C 21,7 C 0,0 UV-I 0,0 C 62 % 77 % 0 % 1012,8 hPa 0,0 l/m 0,1 km/h (0 Bft) 0,00 h 0,00 h 0,0 km/h (0 Bft)
22.05.2012 23:00 23,0 C 20,4 C 0,0 UV-I 0,0 C 63 % 83 % 0 % 1013,7 hPa 0,0 l/m 0,0 km/h (0 Bft) 0,00 h 0,00 h 0,0 km/h (0 Bft)
23.05.2012 00:00 22,9 C 19,5 C 0,0 UV-I 0,0 C 64 % 87 % 0 % 1014,4 hPa 0,0 l/m 0,1 km/h (0 Bft) 0,00 h 0,00 h 0,5 km/h (0 Bft)
23.05.2012 01:00 22,8 C 18,8 C 0,0 UV-I 0,0 C 64 % 90 % 0 % 1014,7 hPa 0,0 l/m 0,9 km/h (0 Bft) 0,00 h 0,00 h 2,2 km/h (1 Bft)
23.05.2012 02:00 22,6 C 17,9 C 0,0 UV-I 0,0 C 65 % 91 % 0 % 1015,3 hPa 0,0 l/m 2,0 km/h (1 Bft) 0,00 h 0,00 h 4,2 km/h (1 Bft)
23.05.2012 03:00 22,5 C 17,0 C 0,0 UV-I 0,0 C 65 % 91 % 0 % 1015,6 hPa 0,0 l/m 1,8 km/h (1 Bft) 0,00 h 0,00 h 3,4 km/h (1 Bft)
23.05.2012 04:00 22,3 C 16,0 C 0,0 UV-I 0,0 C 65 % 91 % 0 % 1016,4 hPa 0,0 l/m 1,6 km/h (1 Bft) 0,00 h 0,00 h 2,6 km/h (1 Bft)
23.05.2012 05:00 22,2 C 15,3 C 0,0 UV-I 0,0 C 65 % 91 % 0 % 1016,8 hPa 0,0 l/m 1,3 km/h (1 Bft) 0,00 h 0,00 h 2,2 km/h (1 Bft)
23.05.2012 06:00 22,1 C 14,8 C 0,0 UV-I 0,0 C 64 % 92 % 0 % 1017,4 hPa 0,0 l/m 1,8 km/h (1 Bft) 0,00 h 0,00 h 3,8 km/h (1 Bft)
23.05.2012 07:00 22,0 C 14,8 C 0,0 UV-I 0,2 C 64 % 93 % 6 % 1017,8 hPa 0,0 l/m 1,1 km/h (0 Bft) 0,00 h 0,00 h 2,3 km/h (1 Bft)
23.05.2012 08:00 22,0 C 15,2 C 0,5 UV-I 2,4 C 64 % 92 % 54 % 1018,4 hPa 0,0 l/m 0,7 km/h (0 Bft) 0,30 h 0,00 h 1,0 km/h (0 Bft)
23.05.2012 09:00 22,2 C 17,0 C 1,6 UV-I 6,0 C 63 % 90 % 98 % 1018,8 hPa 0,0 l/m 1,2 km/h (1 Bft) 1,00 h 0,00 h 1,8 km/h (1 Bft)
23.05.2012 10:00 22,4 C 19,3 C 2,8 UV-I 8,2 C 63 % 84 % 100 % 1019,2 hPa 0,0 l/m 1,9 km/h (1 Bft) 1,00 h 0,00 h 3,4 km/h (1 Bft)
23.05.2012 11:00 22,5 C 21,6 C 3,1 UV-I 8,2 C 63 % 78 % 100 % 1019,5 hPa 0,0 l/m 2,9 km/h (1 Bft) 1,00 h 0,00 h 4,8 km/h (1 Bft)
23.05.2012 12:00 22,8 C 22,9 C 2,8 UV-I 6,5 C 63 % 74 % 100 % 1019,5 hPa 0,0 l/m 4,6 km/h (1 Bft) 1,00 h 0,00 h 6,4 km/h (2 Bft)
23.05.2012 13:00 23,1 C 24,7 C 2,7 UV-I 6,3 C 63 % 69 % 100 % 1019,2 hPa 0,0 l/m 4,1 km/h (1 Bft) 1,00 h 0,00 h 6,1 km/h (2 Bft)
23.05.2012 14:00 23,8 C 26,3 C 2,7 UV-I 5,6 C 61 % 66 % 100 % 1019,5 hPa 0,0 l/m 2,7 km/h (1 Bft) 1,00 h 0,00 h 3,5 km/h (1 Bft)
23.05.2012 15:00 24,9 C 27,5 C 2,8 UV-I 5,5 C 59 % 63 % 100 % 1019,3 hPa 0,0 l/m 3,6 km/h (1 Bft) 1,00 h 0,00 h 4,7 km/h (1 Bft)
23.05.2012 16:00 25,5 C 28,2 C 2,1 UV-I 4,8 C 58 % 60 % 97 % 1019,3 hPa 0,0 l/m 2,6 km/h (1 Bft) 0,93 h 0,00 h 3,9 km/h (1 Bft)
23.05.2012 17:00 24,9 C 26,7 C 0,2 UV-I 0,6 C 59 % 64 % 16 % 1020,2 hPa 0,0 l/m 2,5 km/h (1 Bft) 0,00 h 0,03 h 4,4 km/h (1 Bft)
23.05.2012 18:00 24,3 C 23,9 C 0,0 UV-I 0,0 C 60 % 67 % 0 % 1020,9 hPa 0,0 l/m 3,5 km/h (1 Bft) 0,00 h 0,00 h 5,1 km/h (1 Bft)
23.05.2012 19:00 23,9 C 22,7 C 0,0 UV-I 0,0 C 61 % 68 % 0 % 1021,2 hPa 0,0 l/m 1,3 km/h (1 Bft) 0,00 h 0,00 h 1,2 km/h (1 Bft)
23.05.2012 20:00 23,6 C 21,9 C 0,0 UV-I 0,0 C 62 % 70 % 0 % 1022,1 hPa 0,0 l/m 1,8 km/h (1 Bft) 0,00 h 0,00 h 2,1 km/h (1 Bft)
23.05.2012 21:00 23,4 C 20,8 C 0,0 UV-I 0,0 C 63 % 74 % 0 % 1022,4 hPa 0,0 l/m 0,5 km/h (0 Bft) 0,00 h 0,00 h 0,8 km/h (0 Bft)
23.05.2012 22:00 23,2 C 20,0 C 0,0 UV-I 0,0 C 63 % 77 % 0 % 1022,8 hPa 0,0 l/m 0,1 km/h (0 Bft) 0,00 h 0,00 h 0,3 km/h (0 Bft)
23.05.2012 23:00 23,1 C 19,6 C 0,0 UV-I 0,0 C 63 % 80 % 0 % 1023,3 hPa 0,0 l/m 0,6 km/h (0 Bft) 0,00 h 0,00 h 0,9 km/h (0 Bft)
24.05.2012 00:00 23,0 C 19,0 C 0,0 UV-I 0,0 C 64 % 82 % 0 % 1023,7 hPa 0,0 l/m 0,0 km/h (0 Bft) 0,00 h 0,00 h 0,0 km/h (0 Bft)
24.05.2012 01:00 22,9 C 18,3 C 0,0 UV-I 0,0 C 64 % 86 % 0 % 1024,1 hPa 0,0 l/m 0,0 km/h (0 Bft) 0,00 h 0,00 h 0,0 km/h (0 Bft)
24.05.2012 02:00 22,8 C 17,7 C 0,0 UV-I 0,0 C 64 % 88 % 0 % 1023,9 hPa 0,0 l/m 0,0 km/h (0 Bft) 0,00 h 0,00 h 0,0 km/h (0 Bft)
24.05.2012 03:00 22,8 C 17,6 C 0,0 UV-I 0,0 C 64 % 90 % 0 % 1023,8 hPa 0,0 l/m 0,4 km/h (0 Bft) 0,00 h 0,00 h 1,5 km/h (1 Bft)
24.05.2012 04:00 22,7 C 17,2 C 0,0 UV-I 0,0 C 65 % 91 % 0 % 1023,8 hPa 0,0 l/m 0,0 km/h (0 Bft) 0,00 h 0,00 h 0,0 km/h (0 Bft)
24.05.2012 05:00 22,6 C 16,4 C 0,0 UV-I 0,0 C 65 % 92 % 0 % 1023,7 hPa 0,0 l/m 0,0 km/h (0 Bft) 0,00 h 0,00 h 0,0 km/h (0 Bft)
24.05.2012 06:00 22,5 C 16,8 C 0,0 UV-I 0,0 C 65 % 94 % 0 % 1024,1 hPa 0,0 l/m 0,6 km/h (0 Bft) 0,00 h 0,00 h 1,0 km/h (0 Bft)
24.05.2012 07:00 22,6 C 17,8 C 0,1 UV-I 0,2 C 65 % 94 % 6 % 1024,3 hPa 0,0 l/m 0,7 km/h (0 Bft) 0,00 h 0,00 h 1,4 km/h (1 Bft)
24.05.2012 08:00 22,7 C 19,6 C 0,8 UV-I 4,4 C 65 % 91 % 80 % 1023,9 hPa 0,0 l/m 1,4 km/h (1 Bft) 0,70 h 0,00 h 2,6 km/h (1 Bft)
24.05.2012 09:00 22,8 C 21,8 C 2,0 UV-I 7,1 C 65 % 82 % 100 % 1024,2 hPa 0,0 l/m 2,8 km/h (1 Bft) 1,00 h 0,00 h 5,3 km/h (1 Bft)
24.05.2012 10:00 23,0 C 23,7 C 3,2 UV-I 7,0 C 65 % 75 % 100 % 1024,5 hPa 0,0 l/m 2,4 km/h (1 Bft) 1,00 h 0,00 h 4,0 km/h (1 Bft)
24.05.2012 11:00 23,2 C 25,7 C 3,3 UV-I 7,3 C 65 % 68 % 100 % 1024,4 hPa 0,0 l/m 3,8 km/h (1 Bft) 1,00 h 0,00 h 6,4 km/h (2 Bft)
24.05.2012 12:00 23,4 C 27,4 C 2,7 UV-I 6,3 C 65 % 62 % 100 % 1024,0 hPa 0,0 l/m 7,9 km/h (2 Bft) 1,00 h 0,00 h 12,6 km/h (3 Bft)
24.05.2012 13:00 23,9 C 28,1 C 2,6 UV-I 5,0 C 64 % 59 % 100 % 1023,7 hPa 0,0 l/m 10,1 km/h (2 Bft) 1,00 h 0,00 h 13,1 km/h (3 Bft)
24.05.2012 14:00 25,1 C 29,6 C 2,6 UV-I 5,0 C 61 % 52 % 100 % 1022,6 hPa 0,0 l/m 7,4 km/h (2 Bft) 1,00 h 0,00 h 10,4 km/h (2 Bft)
24.05.2012 15:00 26,8 C 30,4 C 2,8 UV-I 4,8 C 55 % 48 % 100 % 1021,8 hPa 0,0 l/m 7,4 km/h (2 Bft) 1,00 h 0,00 h 10,8 km/h (2 Bft)
24.05.2012 16:00 27,8 C 30,7 C 3,7 UV-I 4,5 C 52 % 45 % 100 % 1021,4 hPa 0,0 l/m 7,2 km/h (2 Bft) 1,00 h 0,00 h 9,5 km/h (2 Bft)
24.05.2012 17:00 28,1 C 30,4 C 3,4 UV-I 4,3 C 51 % 46 % 100 % 1020,5 hPa 0,0 l/m 7,1 km/h (2 Bft) 1,00 h 0,00 h 9,4 km/h (2 Bft)
24.05.2012 18:00 27,4 C 29,1 C 1,1 UV-I 1,7 C 51 % 47 % 44 % 1022,8 hPa 0,0 l/m 7,2 km/h (2 Bft) 0,23 h 0,00 h 9,5 km/h (2 Bft)
24.05.2012 19:00 26,3 C 27,5 C 0,5 UV-I 0,0 C 54 % 50 % 0 % 1022,8 hPa 0,0 l/m 6,1 km/h (2 Bft) 0,00 h 0,00 h 8,3 km/h (2 Bft)
24.05.2012 20:00 25,6 C 25,8 C 0,1 UV-I 0,0 C 55 % 47 % 0 % 1023,0 hPa 0,0 l/m 4,6 km/h (1 Bft) 0,00 h 0,00 h 6,8 km/h (2 Bft)
24.05.2012 21:00 25,2 C 24,0 C 0,0 UV-I 0,0 C 54 % 48 % 0 % 1023,5 hPa 0,0 l/m 3,7 km/h (1 Bft) 0,00 h 0,00 h 4,3 km/h (1 Bft)
24.05.2012 22:00 24,7 C 22,5 C 0,0 UV-I 0,0 C 55 % 50 % 0 % 1024,6 hPa 0,0 l/m 2,6 km/h (1 Bft) 0,00 h 0,00 h 4,7 km/h (1 Bft)
24.05.2012 23:00 24,4 C 21,3 C 0,0 UV-I 0,0 C 55 % 53 % 0 % 1025,3 hPa 0,0 l/m 1,9 km/h (1 Bft) 0,00 h 0,00 h 2,6 km/h (1 Bft)
25.05.2012 00:00 24,2 C 19,8 C 0,0 UV-I 0,0 C 56 % 56 % 0 % 1025,3 hPa 0,0 l/m 0,3 km/h (0 Bft) 0,00 h 0,00 h 0,4 km/h (0 Bft)
25.05.2012 01:00 24,0 C 18,4 C 0,0 UV-I 0,0 C 56 % 60 % 0 % 1025,4 hPa 0,0 l/m 0,2 km/h (0 Bft) 0,00 h 0,00 h 0,7 km/h (0 Bft)
25.05.2012 02:00 23,8 C 17,8 C 0,0 UV-I 0,0 C 56 % 62 % 0 % 1025,3 hPa 0,0 l/m 1,1 km/h (1 Bft) 0,00 h 0,00 h 2,0 km/h (1 Bft)
25.05.2012 03:00 23,6 C 17,0 C 0,0 UV-I 0,0 C 56 % 64 % 0 % 1025,2 hPa 0,0 l/m 0,8 km/h (0 Bft) 0,00 h 0,00 h 1,0 km/h (0 Bft)
25.05.2012 04:00 23,4 C 16,1 C 0,0 UV-I 0,0 C 56 % 65 % 0 % 1025,2 hPa 0,0 l/m 1,3 km/h (1 Bft) 0,00 h 0,00 h 3,3 km/h (1 Bft)
25.05.2012 05:00 23,2 C 15,4 C 0,0 UV-I 0,0 C 55 % 65 % 0 % 1025,3 hPa 0,0 l/m 1,6 km/h (1 Bft) 0,00 h 0,00 h 2,6 km/h (1 Bft)
25.05.2012 06:00 23,1 C 14,9 C 0,0 UV-I 0,0 C 55 % 67 % 0 % 1025,6 hPa 0,0 l/m 1,1 km/h (0 Bft) 0,00 h 0,00 h 2,7 km/h (1 Bft)
25.05.2012 07:00 23,1 C 15,4 C 0,2 UV-I 0,0 C 55 % 66 % 0 % 1026,0 hPa 0,0 l/m 2,9 km/h (1 Bft) 0,00 h 0,00 h 5,3 km/h (1 Bft)
25.05.2012 08:00 23,0 C 17,0 C 1,0 UV-I 5,0 C 54 % 63 % 74 % 1026,0 hPa 0,0 l/m 3,3 km/h (1 Bft) 0,70 h 0,00 h 5,4 km/h (1 Bft)
25.05.2012 09:00 23,1 C 19,6 C 3,4 UV-I 8,0 C 53 % 56 % 100 % 1026,1 hPa 0,0 l/m 5,2 km/h (1 Bft) 1,00 h 0,00 h 9,3 km/h (2 Bft)
25.05.2012 10:00 23,2 C 21,6 C 5,0 UV-I 7,0 C 52 % 48 % 100 % 1025,7 hPa 0,0 l/m 7,5 km/h (2 Bft) 1,00 h 0,00 h 9,9 km/h (2 Bft)
25.05.2012 11:00 23,3 C 22,7 C 3,3 UV-I 5,3 C 51 % 44 % 100 % 1025,4 hPa 0,0 l/m 9,0 km/h (2 Bft) 1,00 h 0,00 h 12,0 km/h (2 Bft)
25.05.2012 12:00 23,7 C 24,0 C 2,3 UV-I 5,1 C 49 % 41 % 100 % 1024,9 hPa 0,0 l/m 8,1 km/h (2 Bft) 1,00 h 0,00 h 10,3 km/h (2 Bft)
25.05.2012 13:00 24,0 C 25,2 C 2,2 UV-I 4,9 C 47 % 38 % 100 % 1024,5 hPa 0,0 l/m 8,2 km/h (2 Bft) 1,00 h 0,00 h 10,9 km/h (2 Bft)
25.05.2012 14:00 25,1 C 25,7 C 2,3 UV-I 4,4 C 44 % 35 % 100 % 1023,3 hPa 0,0 l/m 9,3 km/h (2 Bft) 1,00 h 0,00 h 13,8 km/h (3 Bft)
25.05.2012 15:00 25,1 C 26,4 C 2,4 UV-I 4,0 C 42 % 31 % 100 % 1023,0 hPa 0,0 l/m 9,8 km/h (2 Bft) 1,00 h 0,00 h 12,9 km/h (3 Bft)
25.05.2012 16:00 24,8 C 26,7 C 3,8 UV-I 4,1 C 42 % 31 % 100 % 1022,9 hPa 0,0 l/m 9,7 km/h (2 Bft) 1,00 h 0,00 h 14,1 km/h (3 Bft)
25.05.2012 17:00 24,8 C 26,4 C 3,8 UV-I 3,8 C 41 % 30 % 100 % 1022,4 hPa 0,0 l/m 10,2 km/h (2 Bft) 1,00 h 0,00 h 14,0 km/h (3 Bft)
25.05.2012 18:00 24,7 C 25,4 C 1,1 UV-I 1,5 C 41 % 31 % 41 % 1022,0 hPa 0,0 l/m 9,3 km/h (2 Bft) 0,23 h 0,00 h 11,7 km/h (2 Bft)
25.05.2012 19:00 24,5 C 24,3 C 0,4 UV-I 0,0 C 41 % 33 % 0 % 1022,1 hPa 0,0 l/m 9,4 km/h (2 Bft) 0,00 h 0,00 h 12,0 km/h (2 Bft)
25.05.2012 20:00 24,4 C 23,2 C 0,1 UV-I 0,0 C 42 % 35 % 0 % 1022,1 hPa 0,0 l/m 6,5 km/h (2 Bft) 0,00 h 0,00 h 8,5 km/h (2 Bft)
25.05.2012 21:00 24,2 C 21,8 C 0,0 UV-I 0,0 C 42 % 39 % 0 % 1022,1 hPa 0,0 l/m 3,4 km/h (1 Bft) 0,00 h 0,00 h 5,0 km/h (1 Bft)
25.05.2012 22:00 24,0 C 20,4 C 0,0 UV-I 0,0 C 43 % 44 % 0 % 1022,4 hPa 0,0 l/m 1,1 km/h (1 Bft) 0,00 h 0,00 h 1,4 km/h (1 Bft)
25.05.2012 23:00 23,8 C 19,0 C 0,0 UV-I 0,0 C 45 % 47 % 0 % 1022,6 hPa 0,0 l/m 0,2 km/h (0 Bft) 0,00 h 0,00 h 0,5 km/h (0 Bft)
26.05.2012 00:00 23,6 C 17,4 C 0,0 UV-I 0,0 C 45 % 52 % 0 % 1022,6 hPa 0,0 l/m 0,0 km/h (0 Bft) 0,00 h 0,00 h 0,0 km/h (0 Bft)
26.05.2012 01:00 23,4 C 15,3 C 0,0 UV-I 0,0 C 46 % 59 % 0 % 1022,4 hPa 0,0 l/m 0,0 km/h (0 Bft) 0,00 h 0,00 h 0,0 km/h (0 Bft)
26.05.2012 02:00 23,2 C 14,5 C 0,0 UV-I 0,0 C 46 % 62 % 0 % 1022,3 hPa 0,0 l/m 0,0 km/h (0 Bft) 0,00 h 0,00 h 0,0 km/h (0 Bft)
26.05.2012 03:00 23,0 C 14,6 C 0,0 UV-I 0,0 C 47 % 63 % 0 % 1022,2 hPa 0,0 l/m 0,0 km/h (0 Bft) 0,00 h 0,00 h 0,1 km/h (0 Bft)
26.05.2012 04:00 22,8 C 14,5 C 0,0 UV-I 0,0 C 47 % 64 % 0 % 1022,0 hPa 0,0 l/m 0,1 km/h (0 Bft) 0,00 h 0,00 h 0,4 km/h (0 Bft)
26.05.2012 05:00 22,6 C 13,6 C 0,0 UV-I 0,0 C 48 % 68 % 0 % 1022,0 hPa 0,0 l/m 0,0 km/h (0 Bft) 0,00 h 0,00 h 0,0 km/h (0 Bft)
26.05.2012 06:00 22,5 C 13,3 C 0,0 UV-I 0,0 C 48 % 71 % 0 % 1022,2 hPa 0,0 l/m 0,0 km/h (0 Bft) 0,00 h 0,00 h 0,2 km/h (0 Bft)
26.05.2012 07:00 22,5 C 14,6 C 0,1 UV-I 0,0 C 49 % 70 % 0 % 1021,9 hPa 0,0 l/m 0,5 km/h (0 Bft) 0,00 h 0,00 h 1,2 km/h (1 Bft)
26.05.2012 08:00 22,6 C 16,9 C 1,0 UV-I 5,6 C 49 % 64 % 75 % 1022,4 hPa 0,0 l/m 2,1 km/h (1 Bft) 0,73 h 0,00 h 4,1 km/h (1 Bft)
26.05.2012 09:00 22,8 C 19,8 C 3,2 UV-I 8,8 C 49 % 56 % 100 % 1022,5 hPa 0,0 l/m 2,4 km/h (1 Bft) 1,00 h 0,00 h 4,8 km/h (1 Bft)
26.05.2012 10:00 23,0 C 22,4 C 5,0 UV-I 7,9 C 48 % 47 % 100 % 1022,1 hPa 0,0 l/m 4,1 km/h (1 Bft) 1,00 h 0,00 h 6,7 km/h (2 Bft)
26.05.2012 11:00 23,3 C 24,1 C 3,7 UV-I 6,3 C 48 % 40 % 100 % 1021,8 hPa 0,0 l/m 6,5 km/h (2 Bft) 1,00 h 0,00 h 9,6 km/h (2 Bft)
26.05.2012 12:00 23,7 C 25,0 C 2,3 UV-I 5,7 C 47 % 39 % 100 % 1021,2 hPa 0,0 l/m 6,7 km/h (2 Bft) 1,00 h 0,00 h 9,8 km/h (2 Bft)
26.05.2012 13:00 24,2 C 25,9 C 2,3 UV-I 5,1 C 47 % 37 % 100 % 1020,6 hPa 0,0 l/m 7,1 km/h (2 Bft) 1,00 h 0,00 h 8,9 km/h (2 Bft)
26.05.2012 14:00 25,5 C 26,4 C 2,4 UV-I 4,8 C 45 % 39 % 100 % 1019,6 hPa 0,0 l/m 8,1 km/h (2 Bft) 1,00 h 0,00 h 13,1 km/h (3 Bft)
26.05.2012 15:00 26,9 C 26,9 C 2,6 UV-I 5,0 C 42 % 39 % 100 % 1018,7 hPa 0,0 l/m 7,2 km/h (2 Bft) 1,00 h 0,00 h 9,4 km/h (2 Bft)
26.05.2012 16:00 26,4 C 27,4 C 3,7 UV-I 4,8 C 42 % 39 % 100 % 1019,7 hPa 0,0 l/m 6,8 km/h (2 Bft) 1,00 h 0,00 h 9,8 km/h (2 Bft)
26.05.2012 17:00 25,8 C 27,2 C 3,5 UV-I 4,6 C 44 % 37 % 100 % 1019,3 hPa 0,0 l/m 6,8 km/h (2 Bft) 1,00 h 0,00 h 8,7 km/h (2 Bft)
26.05.2012 18:00 25,4 C 26,0 C 1,0 UV-I 2,2 C 44 % 39 % 55 % 1018,9 hPa 0,0 l/m 6,4 km/h (2 Bft) 0,33 h 0,00 h 9,6 km/h (2 Bft)
26.05.2012 19:00 25,1 C 25,0 C 0,4 UV-I 0,0 C 45 % 40 % 0 % 1018,8 hPa 0,0 l/m 5,9 km/h (2 Bft) 0,00 h 0,00 h 7,9 km/h (2 Bft)
26.05.2012 20:00 24,9 C 24,0 C 0,1 UV-I 0,0 C 47 % 41 % 0 % 1018,9 hPa 0,0 l/m 4,1 km/h (1 Bft) 0,00 h 0,00 h 7,0 km/h (2 Bft)
26.05.2012 21:00 24,7 C 22,8 C 0,0 UV-I 0,0 C 49 % 45 % 0 % 1019,2 hPa 0,0 l/m 1,5 km/h (1 Bft) 0,00 h 0,00 h 2,8 km/h (1 Bft)
26.05.2012 22:00 24,5 C 21,2 C 0,0 UV-I 0,0 C 48 % 49 % 0 % 1019,8 hPa 0,0 l/m 0,9 km/h (0 Bft) 0,00 h 0,00 h 1,4 km/h (1 Bft)
26.05.2012 23:00 24,3 C 20,0 C 0,0 UV-I 0,0 C 49 % 51 % 0 % 1019,9 hPa 0,0 l/m 0,8 km/h (0 Bft) 0,00 h 0,00 h 2,3 km/h (1 Bft)
27.05.2012 00:00 24,2 C 19,0 C 0,0 UV-I 0,0 C 49 % 55 % 0 % 1019,9 hPa 0,0 l/m 0,5 km/h (0 Bft) 0,00 h 0,00 h 0,9 km/h (0 Bft)
27.05.2012 01:00 24,0 C 17,5 C 0,0 UV-I 0,0 C 49 % 60 % 0 % 1019,8 hPa 0,0 l/m 0,0 km/h (0 Bft) 0,00 h 0,00 h 0,0 km/h (0 Bft)
27.05.2012 02:00 23,8 C 15,9 C 0,0 UV-I 0,0 C 49 % 66 % 0 % 1020,0 hPa 0,0 l/m 0,0 km/h (0 Bft) 0,00 h 0,00 h 0,0 km/h (0 Bft)
27.05.2012 03:00 23,6 C 14,3 C 0,0 UV-I 0,0 C 50 % 72 % 0 % 1019,9 hPa 0,0 l/m 0,0 km/h (0 Bft) 0,00 h 0,00 h 0,0 km/h (0 Bft)
27.05.2012 04:00 23,4 C 13,2 C 0,0 UV-I 0,0 C 50 % 77 % 0 % 1020,0 hPa 0,0 l/m 0,0 km/h (0 Bft) 0,00 h 0,00 h 0,0 km/h (0 Bft)
27.05.2012 05:00 23,1 C 12,5 C 0,0 UV-I 0,0 C 51 % 81 % 0 % 1019,9 hPa 0,0 l/m 0,0 km/h (0 Bft) 0,00 h 0,00 h 0,0 km/h (0 Bft)
27.05.2012 06:00 22,8 C 12,3 C 0,0 UV-I 0,0 C 51 % 84 % 0 % 1020,1 hPa 0,0 l/m 0,0 km/h (0 Bft) 0,00 h 0,00 h 0,0 km/h (0 Bft)
27.05.2012 07:00 22,8 C 14,2 C 0,2 UV-I 1,0 C 52 % 84 % 28 % 1020,1 hPa 0,0 l/m 1,4 km/h (1 Bft) 0,00 h 0,00 h 1,9 km/h (1 Bft)
27.05.2012 08:00 23,1 C 18,0 C 0,9 UV-I 5,7 C 52 % 71 % 85 % 1020,1 hPa 0,0 l/m 0,2 km/h (0 Bft) 0,77 h 0,00 h 0,5 km/h (0 Bft)
27.05.2012 09:00 23,5 C 21,7 C 2,8 UV-I 8,7 C 51 % 54 % 100 % 1020,1 hPa 0,0 l/m 2,7 km/h (1 Bft) 1,00 h 0,00 h 5,6 km/h (1 Bft)
27.05.2012 10:00 23,7 C 22,8 C 3,6 UV-I 6,6 C 50 % 50 % 100 % 1020,1 hPa 0,0 l/m 2,7 km/h (1 Bft) 1,00 h 0,00 h 5,8 km/h (1 Bft)
27.05.2012 11:00 23,9 C 24,3 C 3,4 UV-I 6,8 C 50 % 42 % 100 % 1019,4 hPa 0,0 l/m 5,7 km/h (1 Bft) 1,00 h 0,00 h 9,8 km/h (2 Bft)
27.05.2012 12:00 24,2 C 24,1 C 1,8 UV-I 4,4 C 48 % 41 % 83 % 1019,1 hPa 0,0 l/m 6,8 km/h (2 Bft) 0,63 h 0,00 h 9,5 km/h (2 Bft)
27.05.2012 13:00 24,6 C 25,8 C 2,4 UV-I 5,5 C 47 % 36 % 100 % 1018,8 hPa 0,0 l/m 6,5 km/h (2 Bft) 1,00 h 0,00 h 8,0 km/h (2 Bft)
27.05.2012 14:00 25,5 C 26,3 C 2,6 UV-I 4,5 C 45 % 38 % 100 % 1018,1 hPa 0,0 l/m 7,3 km/h (2 Bft) 1,00 h 0,00 h 10,2 km/h (2 Bft)
27.05.2012 15:00 26,6 C 26,2 C 2,4 UV-I 4,3 C 43 % 40 % 96 % 1017,0 hPa 0,0 l/m 4,8 km/h (1 Bft) 0,90 h 0,00 h 6,4 km/h (2 Bft)
27.05.2012 16:00 28,0 C 27,2 C 3,7 UV-I 5,0 C 40 % 39 % 100 % 1015,9 hPa 0,0 l/m 5,2 km/h (1 Bft) 1,00 h 0,00 h 7,8 km/h (2 Bft)
27.05.2012 17:00 28,5 C 27,1 C 3,5 UV-I 4,9 C 39 % 39 % 100 % 1015,3 hPa 0,0 l/m 4,4 km/h (1 Bft) 1,00 h 0,00 h 6,5 km/h (2 Bft)
27.05.2012 18:00 27,8 C 25,8 C 1,0 UV-I 2,6 C 40 % 40 % 59 % 1016,6 hPa 0,0 l/m 4,9 km/h (1 Bft) 0,43 h 0,00 h 7,1 km/h (2 Bft)
27.05.2012 19:00 26,5 C 25,2 C 0,6 UV-I 0,0 C 42 % 41 % 0 % 1016,2 hPa 0,0 l/m 2,2 km/h (1 Bft) 0,00 h 0,00 h 4,2 km/h (1 Bft)
27.05.2012 20:00 25,9 C 24,3 C 0,6 UV-I 0,0 C 44 % 44 % 0 % 1016,2 hPa 0,0 l/m 0,7 km/h (0 Bft) 0,00 h 0,00 h 0,7 km/h (0 Bft)
27.05.2012 21:00 25,4 C 22,1 C 0,3 UV-I 0,0 C 45 % 52 % 0 % 1016,1 hPa 0,0 l/m 0,0 km/h (0 Bft) 0,00 h 0,00 h 0,0 km/h (0 Bft)
27.05.2012 22:00 25,1 C 19,7 C 0,0 UV-I 0,0 C 47 % 60 % 0 % 1016,2 hPa 0,0 l/m 0,0 km/h (0 Bft) 0,00 h 0,00 h 0,0 km/h (0 Bft)
27.05.2012 23:00 24,8 C 17,9 C 0,0 UV-I 0,0 C 48 % 67 % 0 % 1016,4 hPa 0,0 l/m 0,0 km/h (0 Bft) 0,00 h 0,00 h 0,0 km/h (0 Bft)
Min-Datum _ 21.05.12 27.05.12 21.05.12 21.05.12 27.05.12 25.05.12 21.05.12 21.05.12 - 21.05.12 - - 21.05.12
_ Min-Zeit 05:12 06:00 00:00 00:00 16:46 15:38 00:00 14:38 - 00:00 - - 00:00
Minimum _ 19,8 C 12,1 C 0,0 UV-I 0,0 C 39 % 29 % 0 % 997,9 hPa - 0,0 km/h (0 Bft) - - 0,0 km/h (0 Bft)
Max-Datum _ 27.05.12 24.05.12 25.05.12 27.05.12 22.05.12 21.05.12 21.05.12 25.05.12 21.05.12 21.05.12 21.05.12 21.05.12 26.05.12
_ Max-Zeit 17:16 16:10 10:18 09:12 11:27 06:14 08:56 08:58 00:00 14:48 08:52 00:36 14:36
Maximum _ 28,6 C 30,9 C 5,2 UV-I 10,5 C 68 % 95 % 100 % 1026,2 hPa 0,0 l/m 16,1 km/h
W (3 Bft)
0,03 h 0,03 h 52,6 km/h
W-SW (7 Bft)
Durchschnitt _ 23,4 C 21,0 C 1,1 UV-I 2,3 C 56 % 65 % 40 % 1016,0 hPa #0,0 l/m 3,1 km/h (1 Bft) #62:24 h #12 min. 4,9 km/h (1 Bft)
© 2012 W. Hausmann